Aeroporto :







RITROVATECI SU...

 
LOGIN :

Iscrizione | Disclaimer

   EN    FR    IT 

 









Sommario :    VFR   VFR Marginale   IFR   IFR Intensivo   IFR Molto Intensivo
Visibilità : 
Base nubi : 
>= 8 km
>= 3000ft
5 / 8 km
1000 / 3000 ft
1500m / 5 km
500 / 1000 ft
800 / 1500m
200 / 500 ft
< 800m
< 200 ft
Simboli :   Temporali  Nebbia  Neve Forte  Precipitazioni Forti  Vento > 20 kt






- Altitudine del aeroporto : 100 ft
- Codice IATA : PSM


KPSM - Portsmouth International at Pease

ULTIMO METAR :
  • 281856Z 21012G19KT 10SM FEW038 SCT050 BKN250 29/18 A3009 RMK AO2A SLP191 T02880179

METARs OBSOLETI :
  • 281756Z 21013KT 10SM BKN038 BKN250 28/19 A3010 RMK AO2A SLP195 T02810185 10284 20214 57013
  • 281656Z 22011G18KT 10SM BKN040 BKN250 28/18 A3011 RMK AO2A SLP198 T02810179

TAF KPSM
Valido dal 28 a 18 ore il 29 a 18 ore UTC


281729Z 2818/2918 22010G20KT P6SM SCT040
FM282300 21008KT P6SM SCT030
FM290300 20008KT P6SM BKN010
FM291400 21009G20KT P6SM SCT050
FIR KZBW / America del Nord



MetMap, La meteo Aeronautica in un colpo d'occhio ! - Copyright ORBIFLY Dicembre 2007 - Disclaimer

ORBIFLY MET'MAP TEAM :

Programmazione e sviluppo : Alexandra Zaïnal
Concezione : Baudouin d'Aumeries
Aiuto per la programmazione : Marc-Olivier Méhu
Supporto tecnico e logistico : Manuel Goepfert
Aiuto per la traduzione : Arnaldo La Scala

Contatto : metmap@orbifly.com




FONTI E CREDITI :

   NOAA